Capitol Island, Maine
Current Conditions -  °F | °C
As of 11:53 AM on Sunday 23 Nov 2014 (Local Time) from KIWI Reporting Station
Clear Clear  
Wind Chill: 52°   Ceiling: Unl
Heat Index: 52°   Visibility: 10mi
Dew Point: 37°   Wind: 5mph
Humidity: 57%   Direction: 240°WSW
Pressure: 30.07"   Gusts: NA
Location:  43.854°N, 69.611°W
Report Text: KIWI 231653Z AUTO 24004KT 10SM CLR 11/03 A3007 RMK AO2 SLP182 T01110028
Loading
Personal Weather Stations






























Interactive Weather Map New forecast layout! Learn more

10-Day Weather Forecast

Advertisements
Track Severe Weather on mobile